Time;durP1;ratioP1;P1;durP2;ratioP2;P2;SDS_P1;SDS_P2;PMS_P1;PMS_P2;Temp;Humidity;BMP_temperature;BMP_pressure;BME280_temperature;BME280_humidity;BME280_pressure;Samples;Min_cycle;Max_cycle;Signal;HPM_P1;HPM_P2
2022/04/02 00:02:07;;;;;;;9.13;6.20;;;;;;;;;;5086999;28;20024;-71
2022/04/02 00:04:34;;;;;;;13.27;5.70;;;;;;;;;;5090008;28;20028;-71
2022/04/02 00:07:02;;;;;;;19.45;6.20;;;;;;;;;;5092604;28;20103;-70
2022/04/02 00:09:28;;;;;;;10.10;5.75;;;;;;;;;;5092263;28;20469;-71
2022/04/02 00:11:55;;;;;;;12.98;6.20;;;;;;;;;;5092485;28;20028;-71
2022/04/02 00:14:21;;;;;;;14.70;6.47;;;;;;;;;;5092001;28;20020;-71
2022/04/02 00:16:48;;;;;;;11.93;5.85;;;;;;;;;;5089115;28;20103;-70
2022/04/02 00:19:15;;;;;;;9.30;5.88;;;;;;;;;;5086860;28;20238;-70
2022/04/02 00:21:42;;;;;;;12.20;6.20;;;;;;;;;;5086684;28;20032;-71
2022/04/02 00:24:11;;;;;;;11.93;5.35;;;;;;;;;;5086768;28;20054;-71
2022/04/02 00:26:38;;;;;;;12.98;6.22;;;;;;;;;;5089460;28;20027;-71
2022/04/02 00:29:07;;;;;;;11.18;6.13;;;;;;;;;;5092109;28;20048;-70
2022/04/02 00:31:33;;;;;;;15.23;6.15;;;;;;;;;;5092077;28;20373;-71
2022/04/02 00:34:00;;;;;;;13.05;6.03;;;;;;;;;;5092288;28;20103;-71
2022/04/02 00:36:27;;;;;;;10.05;5.50;;;;;;;;;;5092057;28;20050;-71
2022/04/02 00:38:54;;;;;;;11.20;5.80;;;;;;;;;;5089279;28;20525;-70
2022/04/02 00:41:20;;;;;;;12.68;6.22;;;;;;;;;;5086709;28;20032;-71
2022/04/02 00:43:58;;;;;;;13.98;5.75;;;;;;;;;;5086586;28;20191;-71
2022/04/02 00:46:24;;;;;;;15.80;5.95;;;;;;;;;;5086232;28;20020;-71
2022/04/02 00:48:51;;;;;;;12.95;6.07;;;;;;;;;;5088806;28;20021;-70
2022/04/02 00:51:18;;;;;;;17.38;6.07;;;;;;;;;;5091983;28;20020;-71
2022/04/02 00:53:47;;;;;;;18.67;5.78;;;;;;;;;;5092141;28;20021;-70
2022/04/02 00:56:14;;;;;;;13.90;6.57;;;;;;;;;;5091825;28;20077;-71
2022/04/02 00:58:40;;;;;;;13.82;6.18;;;;;;;;;;5092010;28;20429;-71
2022/04/02 01:01:07;;;;;;;15.87;6.10;;;;;;;;;;5089334;28;20085;-71
2022/04/02 01:03:34;;;;;;;9.80;5.63;;;;;;;;;;5090138;28;20024;-70
2022/04/02 01:06:01;;;;;;;12.40;4.90;;;;;;;;;;5090302;28;20051;-70
2022/04/02 01:08:27;;;;;;;8.23;4.87;;;;;;;;;;5090364;28;20438;-70
2022/04/02 01:10:56;;;;;;;10.60;5.17;;;;;;;;;;5091971;28;20108;-70
2022/04/02 01:13:25;;;;;;;9.27;5.47;;;;;;;;;;5095521;28;20022;-70
2022/04/02 01:15:52;;;;;;;12.77;4.80;;;;;;;;;;5095718;28;20020;-70
2022/04/02 01:18:19;;;;;;;13.30;4.90;;;;;;;;;;5095552;28;20028;-70
2022/04/02 01:20:45;;;;;;;11.10;5.17;;;;;;;;;;5095173;28;20091;-71
2022/04/02 01:23:12;;;;;;;13.40;4.83;;;;;;;;;;5093862;28;20028;-70
2022/04/02 01:25:38;;;;;;;12.00;5.87;;;;;;;;;;5089941;28;20094;-70
2022/04/02 01:28:05;;;;;;;11.03;5.03;;;;;;;;;;5090032;28;20028;-70
2022/04/02 01:30:32;;;;;;;7.97;4.60;;;;;;;;;;5089730;28;20507;-70
2022/04/02 01:32:59;;;;;;;10.77;4.80;;;;;;;;;;5090795;28;20099;-70
2022/04/02 01:35:26;;;;;;;12.63;4.67;;;;;;;;;;5095161;28;20085;-70
2022/04/02 01:37:53;;;;;;;9.47;4.13;;;;;;;;;;5094997;28;20020;-70
2022/04/02 01:40:21;;;;;;;11.53;4.40;;;;;;;;;;5095126;28;20031;-70
2022/04/02 01:42:47;;;;;;;12.13;4.30;;;;;;;;;;5095391;28;20034;-70
2022/04/02 01:45:15;;;;;;;12.50;4.53;;;;;;;;;;5094177;28;20037;-71
2022/04/02 01:47:42;;;;;;;10.57;4.50;;;;;;;;;;5089381;28;20103;-70
2022/04/02 01:50:10;;;;;;;14.30;4.30;;;;;;;;;;5089552;28;20031;-70
2022/04/02 01:52:37;;;;;;;13.77;3.57;;;;;;;;;;5089444;28;20100;-70
2022/04/02 01:55:04;;;;;;;8.90;4.53;;;;;;;;;;5089291;28;20031;-70
2022/04/02 01:57:31;;;;;;;8.17;4.37;;;;;;;;;;5095040;28;20379;-70
2022/04/02 01:59:57;;;;;;;10.33;4.03;;;;;;;;;;5094931;28;20020;-70
2022/04/02 02:02:24;;;;;;;9.60;4.07;;;;;;;;;;5094822;28;20100;-70
2022/04/02 02:04:51;;;;;;;8.27;3.83;;;;;;;;;;5094507;28;20020;-70
2022/04/02 02:07:18;;;;;;;8.03;4.27;;;;;;;;;;5094414;28;20044;-70
2022/04/02 02:09:45;;;;;;;6.23;3.97;;;;;;;;;;5088815;28;20460;-70
2022/04/02 02:12:11;;;;;;;8.37;4.20;;;;;;;;;;5089070;28;20031;-70
2022/04/02 02:14:38;;;;;;;6.37;3.70;;;;;;;;;;5088149;28;20020;-70
2022/04/02 02:17:05;;;;;;;10.53;4.23;;;;;;;;;;5088922;28;20376;-70
2022/04/02 02:19:32;;;;;;;5.87;3.43;;;;;;;;;;5094011;28;20036;-70
2022/04/02 02:21:58;;;;;;;12.73;3.80;;;;;;;;;;5094382;28;20032;-70
2022/04/02 02:24:25;;;;;;;11.67;4.70;;;;;;;;;;5094393;28;20425;-70
2022/04/02 02:26:53;;;;;;;7.50;4.20;;;;;;;;;;5094126;28;20077;-70
2022/04/02 02:29:20;;;;;;;8.37;3.43;;;;;;;;;;5076081;28;20445;-70
2022/04/02 02:31:47;;;;;;;7.03;3.37;;;;;;;;;;5088592;28;20069;-70
2022/04/02 02:37:00;;;;;;;8.87;3.57;;;;;;;;;;5088762;28;20039;-70
2022/04/02 02:39:27;;;;;;;15.73;3.83;;;;;;;;;;5088380;28;20031;-70
2022/04/02 02:41:53;;;;;;;8.83;3.40;;;;;;;;;;5093708;28;20024;-69
2022/04/02 02:44:20;;;;;;;12.50;3.70;;;;;;;;;;5093721;28;20020;-70
2022/04/02 02:46:47;;;;;;;11.17;3.77;;;;;;;;;;5093954;28;20087;-70
2022/04/02 02:49:13;;;;;;;6.70;3.83;;;;;;;;;;5093918;28;20771;-70
2022/04/02 02:51:40;;;;;;;5.43;3.47;;;;;;;;;;5093840;28;20016;-70
2022/04/02 02:54:07;;;;;;;6.23;3.40;;;;;;;;;;5088607;28;20024;-69
2022/04/02 02:56:34;;;;;;;16.10;3.80;;;;;;;;;;5088139;28;20363;-70
2022/04/02 02:59:01;;;;;;;9.43;3.83;;;;;;;;;;5088165;28;20073;-70
2022/04/02 03:01:28;;;;;;;16.87;4.80;;;;;;;;;;5088075;28;20027;-70
2022/04/02 03:03:55;;;;;;;6.53;3.67;;;;;;;;;;5092107;28;20390;-70
2022/04/02 03:06:22;;;;;;;6.50;3.40;;;;;;;;;;5093509;28;20028;-70
2022/04/02 03:08:49;;;;;;;11.33;3.63;;;;;;;;;;5093380;28;20020;-70
2022/04/02 03:11:16;;;;;;;9.03;3.63;;;;;;;;;;5093564;28;20024;-70
2022/04/02 03:13:44;;;;;;;7.33;3.90;;;;;;;;;;5093245;28;20467;-70
2022/04/02 03:16:10;;;;;;;8.37;3.67;;;;;;;;;;5088708;28;20020;-70
2022/04/02 03:18:37;;;;;;;7.63;3.50;;;;;;;;;;5087965;28;20095;-70
2022/04/02 03:21:04;;;;;;;9.73;4.00;;;;;;;;;;5087486;28;20475;-69
2022/04/02 03:23:32;;;;;;;9.73;4.30;;;;;;;;;;5087620;28;20061;-70
2022/04/02 03:25:58;;;;;;;6.50;3.37;;;;;;;;;;5090299;28;20027;-70
2022/04/02 03:28:25;;;;;;;7.63;3.43;;;;;;;;;;5093108;28;20028;-70
2022/04/02 03:30:52;;;;;;;12.13;3.40;;;;;;;;;;5092899;28;20085;-70
2022/04/02 03:33:20;;;;;;;9.40;4.87;;;;;;;;;;5074706;28;20024;-70
2022/04/02 03:35:47;;;;;;;7.47;3.23;;;;;;;;;;5093010;28;20020;-70
2022/04/02 03:38:14;;;;;;;5.57;2.90;;;;;;;;;;5088673;28;20035;-70
2022/04/02 03:40:41;;;;;;;14.40;3.97;;;;;;;;;;5087461;28;20051;-70
2022/04/02 03:43:07;;;;;;;11.73;3.27;;;;;;;;;;5087193;28;20020;-70
2022/04/02 03:45:34;;;;;;;7.60;2.87;;;;;;;;;;5087589;28;20024;-70
2022/04/02 03:48:01;;;;;;;5.00;3.03;;;;;;;;;;5089841;28;20090;-69
2022/04/02 03:50:28;;;;;;;8.47;3.07;;;;;;;;;;5092768;28;20540;-70
2022/04/02 03:52:54;;;;;;;5.83;3.17;;;;;;;;;;5092738;28;20064;-70
2022/04/02 03:55:21;;;;;;;5.73;2.77;;;;;;;;;;5092254;28;20028;-70
2022/04/02 03:57:49;;;;;;;5.27;3.00;;;;;;;;;;5092680;28;20154;-70
2022/04/02 04:00:16;;;;;;;9.10;3.47;;;;;;;;;;5089526;28;20028;-71
2022/04/02 04:02:43;;;;;;;12.13;3.80;;;;;;;;;;5087200;28;20028;-70
2022/04/02 04:05:10;;;;;;;15.23;4.60;;;;;;;;;;5086862;28;20078;-71
2022/04/02 04:07:37;;;;;;;5.30;2.70;;;;;;;;;;5087035;28;20374;-70
2022/04/02 04:10:04;;;;;;;6.30;2.77;;;;;;;;;;5089445;28;20036;-70
2022/04/02 04:12:31;;;;;;;6.07;2.83;;;;;;;;;;5092161;28;20028;-70
2022/04/02 04:14:57;;;;;;;8.20;3.17;;;;;;;;;;5092540;28;20473;-70
2022/04/02 04:17:24;;;;;;;8.73;3.33;;;;;;;;;;5092286;28;20035;-70
2022/04/02 04:19:51;;;;;;;8.83;3.50;;;;;;;;;;5092314;28;20035;-70
2022/04/02 04:22:20;;;;;;;5.10;2.70;;;;;;;;;;5089527;28;20103;-70
2022/04/02 04:24:47;;;;;;;11.87;2.83;;;;;;;;;;5086785;28;20020;-71
2022/04/02 04:27:13;;;;;;;6.70;3.07;;;;;;;;;;5086858;28;20024;-70
2022/04/02 04:29:40;;;;;;;13.07;3.23;;;;;;;;;;5086234;28;20036;-70
2022/04/02 04:32:07;;;;;;;12.93;3.13;;;;;;;;;;5088488;28;20063;-70
2022/04/02 04:34:34;;;;;;;4.53;2.50;;;;;;;;;;5092170;28;20028;-70
2022/04/02 04:37:01;;;;;;;10.20;3.20;;;;;;;;;;5093692;28;20055;-70
2022/04/02 04:39:28;;;;;;;14.97;2.97;;;;;;;;;;5096205;28;20024;-70
2022/04/02 04:41:55;;;;;;;5.20;2.93;;;;;;;;;;5096475;28;20047;-70
2022/04/02 04:44:21;;;;;;;9.83;2.90;;;;;;;;;;5094412;28;20121;-70
2022/04/02 04:46:48;;;;;;;8.13;2.97;;;;;;;;;;5090625;28;20355;-70
2022/04/02 04:49:15;;;;;;;6.50;2.70;;;;;;;;;;5090469;28;20111;-70
2022/04/02 04:51:42;;;;;;;9.60;3.10;;;;;;;;;;5090778;28;20032;-70
2022/04/02 04:54:09;;;;;;;6.37;2.70;;;;;;;;;;5091655;28;20074;-70
2022/04/02 04:56:36;;;;;;;4.83;2.67;;;;;;;;;;5095796;28;20027;-70
2022/04/02 04:59:03;;;;;;;8.83;2.70;;;;;;;;;;5096100;28;20024;-70
2022/04/02 05:01:29;;;;;;;6.20;2.47;;;;;;;;;;5096021;28;20016;-70
2022/04/02 05:03:56;;;;;;;8.60;3.00;;;;;;;;;;5095937;28;20016;-70
2022/04/02 05:06:23;;;;;;;10.50;2.77;;;;;;;;;;5094439;28;20444;-70
2022/04/02 05:08:50;;;;;;;8.43;3.73;;;;;;;;;;5090162;28;20035;-70
2022/04/02 05:11:17;;;;;;;9.03;3.53;;;;;;;;;;5090584;28;20020;-70
2022/04/02 05:13:44;;;;;;;9.13;3.60;;;;;;;;;;5090228;28;20131;-70
2022/04/02 05:16:11;;;;;;;9.80;3.80;;;;;;;;;;5090411;28;20543;-70
2022/04/02 05:18:37;;;;;;;6.57;2.37;;;;;;;;;;5095615;28;20020;-70
2022/04/02 05:21:04;;;;;;;5.40;2.50;;;;;;;;;;5095561;28;20016;-70
2022/04/02 05:23:31;;;;;;;6.07;2.77;;;;;;;;;;5095223;28;20024;-70
2022/04/02 05:25:58;;;;;;;6.60;2.87;;;;;;;;;;5095603;28;20023;-70
2022/04/02 05:28:25;;;;;;;8.13;2.80;;;;;;;;;;5095115;28;20020;-70
2022/04/02 05:30:51;;;;;;;13.40;3.43;;;;;;;;;;5089446;28;20475;-70
2022/04/02 05:33:19;;;;;;;4.97;2.73;;;;;;;;;;5089993;28;20111;-70
2022/04/02 05:35:46;;;;;;;8.87;3.97;;;;;;;;;;5089856;28;20028;-70
2022/04/02 05:38:13;;;;;;;9.67;3.77;;;;;;;;;;5089704;28;20042;-70
2022/04/02 05:40:39;;;;;;;5.83;2.37;;;;;;;;;;5094668;28;20099;-70
2022/04/02 05:43:07;;;;;;;8.97;3.00;;;;;;;;;;5095197;28;20500;-70
2022/04/02 05:45:33;;;;;;;8.00;2.73;;;;;;;;;;5095091;28;20030;-70
2022/04/02 05:48:00;;;;;;;13.53;3.13;;;;;;;;;;5093972;28;20493;-70
2022/04/02 05:50:27;;;;;;;10.50;3.70;;;;;;;;;;5094733;28;20032;-70
2022/04/02 05:52:54;;;;;;;8.73;3.50;;;;;;;;;;5089508;28;20586;-70
2022/04/02 05:55:21;;;;;;;7.47;3.37;;;;;;;;;;5089500;28;20048;-70
2022/04/02 05:57:48;;;;;;;6.97;2.83;;;;;;;;;;5089077;28;20054;-70
2022/04/02 06:00:16;;;;;;;8.47;3.67;;;;;;;;;;5089251;28;20091;-70
2022/04/02 06:02:43;;;;;;;12.37;3.40;;;;;;;;;;5093970;28;20021;-70
2022/04/02 06:05:11;;;;;;;7.80;3.23;;;;;;;;;;5094632;28;20035;-70
2022/04/02 06:07:38;;;;;;;7.10;3.23;;;;;;;;;;5094744;28;20103;-70
2022/04/02 06:10:06;;;;;;;5.93;3.50;;;;;;;;;;5094701;28;20387;-70
2022/04/02 06:12:33;;;;;;;8.67;3.43;;;;;;;;;;5094677;28;20020;-69
2022/04/02 06:15:00;;;;;;;10.93;3.90;;;;;;;;;;5089613;28;20024;-70
2022/04/02 06:17:27;;;;;;;7.23;3.50;;;;;;;;;;5089180;28;20099;-70
2022/04/02 06:19:54;;;;;;;6.90;3.07;;;;;;;;;;5089336;28;20067;-70
2022/04/02 06:22:20;;;;;;;7.10;3.10;;;;;;;;;;5088877;28;20024;-70
2022/04/02 06:24:47;;;;;;;5.13;2.70;;;;;;;;;;5092923;28;20027;-70
2022/04/02 06:27:14;;;;;;;6.43;3.23;;;;;;;;;;5094364;28;20085;-70
2022/04/02 06:29:40;;;;;;;7.93;3.30;;;;;;;;;;5094030;28;20356;-70
2022/04/02 06:32:07;;;;;;;7.37;3.30;;;;;;;;;;5093899;28;20032;-70
2022/04/02 06:34:34;;;;;;;7.77;3.10;;;;;;;;;;5094399;28;20056;-70
2022/04/02 06:37:01;;;;;;;9.43;3.80;;;;;;;;;;5090527;28;20016;-70
2022/04/02 06:39:27;;;;;;;17.90;2.70;;;;;;;;;;5088735;28;20383;-70
2022/04/02 06:41:55;;;;;;;4.87;2.53;;;;;;;;;;5089075;28;20020;-70
2022/04/02 06:44:21;;;;;;;5.53;2.97;;;;;;;;;;5089078;28;20099;-71
2022/04/02 06:46:48;;;;;;;6.37;3.10;;;;;;;;;;5091779;28;20028;-70
2022/04/02 06:49:15;;;;;;;9.87;3.73;;;;;;;;;;5093603;28;20059;-70
2022/04/02 06:51:41;;;;;;;6.77;3.50;;;;;;;;;;5093910;28;20016;-70
2022/04/02 06:54:09;;;;;;;9.70;3.70;;;;;;;;;;5094098;28;20082;-70
2022/04/02 06:56:36;;;;;;;5.07;3.50;;;;;;;;;;5093728;28;20020;-70
2022/04/02 06:59:02;;;;;;;5.83;2.90;;;;;;;;;;5090711;28;20027;-70
2022/04/02 07:01:29;;;;;;;8.20;3.57;;;;;;;;;;5088422;28;20024;-70
2022/04/02 07:03:56;;;;;;;6.97;3.07;;;;;;;;;;5088521;28;20421;-70
2022/04/02 07:06:22;;;;;;;8.33;3.37;;;;;;;;;;5088245;28;20027;-70
2022/04/02 07:08:49;;;;;;;8.17;3.80;;;;;;;;;;5090753;28;20031;-70
2022/04/02 07:11:16;;;;;;;7.43;4.50;;;;;;;;;;5093764;28;20028;-70
2022/04/02 07:13:42;;;;;;;5.13;3.40;;;;;;;;;;5093361;28;20106;-70
2022/04/02 07:16:09;;;;;;;7.50;3.70;;;;;;;;;;5093509;28;20034;-68
2022/04/02 07:18:41;;;;;;;6.57;3.57;;;;;;;;;;5093467;28;20020;-68
2022/04/02 07:21:11;;;;;;;6.40;4.00;;;;;;;;;;5090849;28;20012;-68
2022/04/02 07:23:39;;;;;;;7.93;3.40;;;;;;;;;;5078377;28;20085;-68
2022/04/02 07:26:07;;;;;;;7.67;3.80;;;;;;;;;;5087826;28;20032;-68
2022/04/02 07:28:34;;;;;;;7.23;3.70;;;;;;;;;;5088307;28;20114;-69
2022/04/02 07:31:00;;;;;;;9.13;4.00;;;;;;;;;;5089990;28;20471;-68
2022/04/02 07:33:27;;;;;;;7.07;4.10;;;;;;;;;;5085586;28;20090;-68
2022/04/02 07:35:55;;;;;;;6.40;3.83;;;;;;;;;;5072952;28;20036;-68
2022/04/02 07:38:23;;;;;;;12.03;4.13;;;;;;;;;;5072649;28;20463;-68
2022/04/02 07:41:06;;;;;;;6.27;3.70;;;;;;;;;;5072894;28;20036;-69
2022/04/02 07:43:41;;;;;;;10.70;3.87;;;;;;;;;;5076862;28;20024;-69
2022/04/02 07:46:13;;;;;;;6.55;4.20;;;;;;;;;;5088069;28;20032;-68
2022/04/02 07:48:43;;;;;;;7.17;4.27;;;;;;;;;;5087483;28;20103;-68
2022/04/02 07:51:11;;;;;;;6.50;3.70;;;;;;;;;;5088019;28;20341;-68
2022/04/02 07:53:44;;;;;;;9.80;5.27;;;;;;;;;;5088835;28;20024;-68
2022/04/02 07:56:13;;;;;;;10.97;3.53;;;;;;;;;;5092969;28;20034;-68
2022/04/02 07:58:42;;;;;;;10.60;4.77;;;;;;;;;;5092887;28;20044;-68
2022/04/02 08:01:10;;;;;;;10.17;3.93;;;;;;;;;;5092719;28;20375;-68
2022/04/02 08:03:38;;;;;;;8.43;4.00;;;;;;;;;;5084885;28;20028;-68
2022/04/02 08:06:06;;;;;;;13.40;3.77;;;;;;;;;;5069052;28;20042;-69
2022/04/02 08:08:33;;;;;;;10.20;4.33;;;;;;;;;;5067491;28;20017;-68
2022/04/02 08:11:01;;;;;;;6.90;3.37;;;;;;;;;;5066980;28;20035;-68
2022/04/02 08:13:29;;;;;;;8.37;3.50;;;;;;;;;;5072955;28;20032;-68
2022/04/02 08:15:57;;;;;;;6.23;3.47;;;;;;;;;;5090115;28;20016;-68
2022/04/02 08:18:26;;;;;;;10.63;4.20;;;;;;;;;;5092181;28;20024;-68
2022/04/02 08:20:54;;;;;;;6.97;4.17;;;;;;;;;;5092465;28;20039;-68
2022/04/02 08:23:21;;;;;;;11.00;3.80;;;;;;;;;;5087387;28;20023;-68
2022/04/02 08:25:51;;;;;;;7.83;3.70;;;;;;;;;;5072332;28;20028;-68
2022/04/02 08:28:32;;;;;;;9.57;4.03;;;;;;;;;;5069141;28;20100;-68
2022/04/02 08:31:18;;;;;;;6.47;3.67;;;;;;;;;;5066828;28;20115;-68
2022/04/02 08:33:52;;;;;;;9.27;3.70;;;;;;;;;;5074641;28;20023;-69
2022/04/02 08:36:31;;;;;;;6.77;3.70;;;;;;;;;;5087406;28;20020;-68
2022/04/02 08:39:02;;;;;;;5.83;4.23;;;;;;;;;;5091187;28;20095;-68
2022/04/02 08:41:38;;;;;;;11.00;3.47;;;;;;;;;;5092773;28;20502;-68
2022/04/02 08:44:17;;;;;;;10.60;3.77;;;;;;;;;;5081767;28;20078;-68
2022/04/02 08:47:04;;;;;;;8.93;3.87;;;;;;;;;;5072138;28;20467;-69
2022/04/02 08:49:36;;;;;;;7.27;3.43;;;;;;;;;;5030527;28;20692;-68
2022/04/02 08:52:15;;;;;;;6.67;3.70;;;;;;;;;;5066893;28;20151;-68
2022/04/02 08:54:47;;;;;;;7.47;3.93;;;;;;;;;;5073064;28;20028;-68
2022/04/02 08:57:20;;;;;;;5.00;3.33;;;;;;;;;;5066597;28;20078;-68
2022/04/02 08:59:52;;;;;;;4.80;3.17;;;;;;;;;;5068203;28;20096;-68
2022/04/02 09:02:22;;;;;;;11.30;4.37;;;;;;;;;;5072000;28;20024;-68
2022/04/02 09:05:18;;;;;;;7.20;3.70;;;;;;;;;;5079913;28;20424;-68
2022/04/02 09:08:04;;;;;;;6.27;3.43;;;;;;;;;;5071024;28;20493;-68
2022/04/02 09:10:52;;;;;;;4.40;2.70;;;;;;;;;;5092118;28;20073;-68
2022/04/02 09:13:25;;;;;;;11.20;4.00;;;;;;;;;;5087453;28;20097;-69
2022/04/02 09:16:04;;;;;;;7.70;3.60;;;;;;;;;;5069904;28;20032;-68
2022/04/02 09:18:36;;;;;;;5.93;3.70;;;;;;;;;;5066686;28;20111;-68
2022/04/02 09:21:21;;;;;;;8.33;3.30;;;;;;;;;;5066656;28;20020;-69
2022/04/02 09:23:51;;;;;;;9.05;3.47;;;;;;;;;;5074027;28;20024;-68
2022/04/02 09:26:28;;;;;;;7.63;3.60;;;;;;;;;;5095212;28;20031;-67
2022/04/02 09:29:06;;;;;;;7.20;3.80;;;;;;;;;;5093801;28;20375;-68
2022/04/02 09:31:36;;;;;;;6.60;3.50;;;;;;;;;;5095585;28;20024;-68
2022/04/02 09:34:05;;;;;;;6.30;3.60;;;;;;;;;;5093313;28;20475;-67
2022/04/02 09:37:02;;;;;;;10.13;5.10;;;;;;;;;;5070216;28;20021;-68
2022/04/02 09:39:34;;;;;;;6.00;3.50;;;;;;;;;;5052810;28;20419;-68
2022/04/02 09:42:10;;;;;;;6.00;3.40;;;;;;;;;;5070331;28;20028;-68
2022/04/02 09:44:58;;;;;;;6.67;3.70;;;;;;;;;;5077079;28;20031;-68
2022/04/02 09:47:37;;;;;;;5.10;3.40;;;;;;;;;;5095027;28;20094;-68
2022/04/02 09:50:11;;;;;;;8.40;4.00;;;;;;;;;;5095343;28;20080;-68
2022/04/02 09:52:39;;;;;;;6.90;3.57;;;;;;;;;;5095342;28;20031;-68
2022/04/02 09:55:07;;;;;;;8.70;3.77;;;;;;;;;;5085551;28;20489;-68
2022/04/02 09:57:46;;;;;;;6.57;3.43;;;;;;;;;;5071519;28;20025;-68
2022/04/02 10:00:18;;;;;;;5.47;3.27;;;;;;;;;;5069852;28;20036;-68
2022/04/02 10:03:03;;;;;;;6.60;3.60;;;;;;;;;;5069674;28;20050;-68
2022/04/02 10:05:42;;;;;;;6.30;3.60;;;;;;;;;;5081851;28;20028;-68
2022/04/02 10:08:41;;;;;;;8.20;3.70;;;;;;;;;;5094415;28;20200;-67
2022/04/02 10:11:08;;;;;;;6.73;3.53;;;;;;;;;;5039903;28;20047;-68
2022/04/02 10:13:35;;;;;;;7.77;3.80;;;;;;;;;;5094955;28;20418;-68
2022/04/02 10:16:05;;;;;;;8.47;4.10;;;;;;;;;;5077653;28;20024;-68
2022/04/02 10:18:36;;;;;;;8.20;3.70;;;;;;;;;;5073981;28;20021;-69
2022/04/02 10:21:06;;;;;;;7.80;3.90;;;;;;;;;;5069513;28;20023;-68
2022/04/02 10:23:35;;;;;;;12.10;4.17;;;;;;;;;;5069082;28;20091;-68
2022/04/02 10:26:19;;;;;;;8.00;3.90;;;;;;;;;;5049432;28;20381;-68
2022/04/02 10:28:52;;;;;;;11.17;3.97;;;;;;;;;;5050134;28;20057;-68
2022/04/02 10:31:24;;;;;;;6.70;3.77;;;;;;;;;;5036296;28;20353;-68
2022/04/02 10:33:53;;;;;;;6.63;3.30;;;;;;;;;;5058749;28;20029;-68
2022/04/02 10:36:22;;;;;;;6.83;4.07;;;;;;;;;;5094014;28;20500;-67
2022/04/02 10:38:51;;;;;;;10.50;4.80;;;;;;;;;;5093873;28;20370;-68
2022/04/02 10:41:18;;;;;;;8.27;4.20;;;;;;;;;;5092636;28;20028;-68
2022/04/02 10:43:52;;;;;;;8.57;4.30;;;;;;;;;;5069717;28;20027;-68
2022/04/02 10:46:23;;;;;;;14.55;4.38;;;;;;;;;;5068997;28;20052;-68
2022/04/02 10:48:57;;;;;;;7.90;4.27;;;;;;;;;;5068625;28;20471;-68
2022/04/02 10:51:29;;;;;;;10.90;5.32;;;;;;;;;;5070335;28;20016;-68
2022/04/02 10:54:01;;;;;;;12.43;6.00;;;;;;;;;;5076019;28;20687;-68
2022/04/02 10:56:48;;;;;;;13.10;6.10;;;;;;;;;;5093785;28;20032;-69
2022/04/02 10:59:15;;;;;;;11.37;5.23;;;;;;;;;;5093677;28;20030;-68
2022/04/02 11:01:43;;;;;;;11.23;5.00;;;;;;;;;;5094133;28;20032;-68
2022/04/02 11:04:21;;;;;;;11.87;5.80;;;;;;;;;;5086202;28;20367;-68
2022/04/02 11:06:49;;;;;;;16.10;5.40;;;;;;;;;;5069737;28;20509;-68
2022/04/02 11:09:29;;;;;;;11.70;5.13;;;;;;;;;;5088710;28;20109;-68
2022/04/02 11:11:57;;;;;;;11.63;4.90;;;;;;;;;;5088550;28;20028;-68
2022/04/02 11:14:25;;;;;;;8.37;4.50;;;;;;;;;;5085100;28;20025;-68
2022/04/02 11:16:52;;;;;;;10.00;5.10;;;;;;;;;;5073363;28;20147;-67
2022/04/02 11:22:11;;;;;;;9.17;4.80;;;;;;;;;;5093412;28;20086;-69
2022/04/02 11:24:50;;;;;;;6.33;4.10;;;;;;;;;;5093454;28;20298;-68
2022/04/02 11:27:18;;;;;;;12.00;4.23;;;;;;;;;;5088686;28;20027;-68
2022/04/02 11:29:50;;;;;;;9.63;4.40;;;;;;;;;;5071166;28;20028;-68
2022/04/02 11:32:21;;;;;;;7.40;4.70;;;;;;;;;;5087417;28;20024;-68
2022/04/02 11:34:47;;;;;;;6.53;4.07;;;;;;;;;;5069386;28;20032;-68
2022/04/02 11:37:16;;;;;;;7.93;4.37;;;;;;;;;;5072275;28;20025;-68
2022/04/02 11:39:49;;;;;;;12.17;5.90;;;;;;;;;;5073101;28;20047;-68
2022/04/02 11:42:17;;;;;;;10.00;5.40;;;;;;;;;;5073024;28;20021;-68
2022/04/02 11:44:51;;;;;;;9.60;4.87;;;;;;;;;;5089276;28;20264;-67
2022/04/02 11:47:25;;;;;;;8.77;4.40;;;;;;;;;;5092215;28;20531;-68
2022/04/02 11:49:55;;;;;;;10.98;5.95;;;;;;;;;;5088003;28;20288;-68
2022/04/02 11:52:21;;;;;;;8.70;4.90;;;;;;;;;;5088182;28;20012;-68
2022/04/02 11:54:51;;;;;;;13.40;5.17;;;;;;;;;;5070290;28;20266;-68
2022/04/02 11:57:18;;;;;;;7.43;4.17;;;;;;;;;;5080199;28;20265;-68
2022/04/02 11:59:52;;;;;;;9.27;4.43;;;;;;;;;;5092421;28;20249;-68
2022/04/02 12:02:35;;;;;;;8.50;5.00;;;;;;;;;;5092874;28;20257;-68
2022/04/02 12:05:04;;;;;;;9.83;5.27;;;;;;;;;;5092663;28;20249;-67
2022/04/02 12:07:46;;;;;;;16.47;4.37;;;;;;;;;;5078702;28;20273;-67
2022/04/02 12:10:14;;;;;;;8.13;4.83;;;;;;;;;;5071022;28;20292;-68
2022/04/02 12:12:47;;;;;;;10.43;4.30;;;;;;;;;;5067527;28;20025;-67
2022/04/02 12:15:15;;;;;;;10.27;4.90;;;;;;;;;;5067472;28;20345;-68
2022/04/02 12:17:46;;;;;;;11.17;5.90;;;;;;;;;;5081936;28;20273;-68
2022/04/02 12:20:14;;;;;;;10.20;5.50;;;;;;;;;;5088218;28;20723;-68
2022/04/02 12:22:41;;;;;;;13.03;5.73;;;;;;;;;;5092464;28;20279;-68
2022/04/02 12:25:13;;;;;;;14.30;7.17;;;;;;;;;;5092631;28;20257;-68
2022/04/02 12:27:40;;;;;;;15.37;7.20;;;;;;;;;;5077916;28;20352;-68
2022/04/02 12:30:09;;;;;;;17.47;7.33;;;;;;;;;;5072120;28;20296;-67
2022/04/02 12:32:36;;;;;;;16.83;7.13;;;;;;;;;;5070448;28;20841;-68
2022/04/02 12:35:06;;;;;;;14.50;7.20;;;;;;;;;;5066870;28;20301;-67
2022/04/02 12:37:40;;;;;;;9.97;6.60;;;;;;;;;;5080078;28;20304;-68
2022/04/02 12:40:18;;;;;;;36.05;7.00;;;;;;;;;;5087162;28;20260;-68
2022/04/02 12:42:45;;;;;;;18.83;6.07;;;;;;;;;;5088855;28;20024;-67
2022/04/02 12:45:14;;;;;;;18.13;6.83;;;;;;;;;;5092364;28;20264;-67
2022/04/02 12:47:41;;;;;;;16.90;8.20;;;;;;;;;;5077703;28;20261;-67
2022/04/02 12:50:12;;;;;;;18.43;8.33;;;;;;;;;;5072078;28;20302;-68
2022/04/02 12:52:48;;;;;;;15.80;7.77;;;;;;;;;;5072259;28;20332;-68
2022/04/02 12:55:24;;;;;;;13.23;7.07;;;;;;;;;;5069496;28;20258;-67
2022/04/02 12:57:50;;;;;;;;;;;;;;;;;;5083033;28;20781;-67
2022/04/02 13:00:25;;;;;;;12.67;6.27;;;;;;;;;;5091277;28;19911;-68
2022/04/02 13:02:56;;;;;;;16.90;6.60;;;;;;;;;;5072929;28;20264;-68
2022/04/02 13:05:24;;;;;;;27.77;8.60;;;;;;;;;;5093685;28;20260;-68
2022/04/02 13:08:00;;;;;;;15.27;7.57;;;;;;;;;;5080538;28;20261;-68
2022/04/02 13:10:29;;;;;;;11.27;6.17;;;;;;;;;;5075621;28;20281;-69
2022/04/02 13:13:02;;;;;;;14.03;6.57;;;;;;;;;;5075708;28;20319;-68
2022/04/02 13:15:29;;;;;;;12.73;6.33;;;;;;;;;;5075752;28;20265;-68
2022/04/02 13:20:45;;;;;;;16.33;5.70;;;;;;;;;;5091085;28;20042;-68
2022/04/02 13:23:31;;;;;;;17.17;6.80;;;;;;;;;;5090760;28;20721;-68
2022/04/02 13:26:04;;;;;;;23.17;5.77;;;;;;;;;;5090569;28;20024;-68
2022/04/02 13:28:49;;;;;;;19.67;6.00;;;;;;;;;;5074607;28;20028;-68
2022/04/02 13:31:18;;;;;;;12.93;6.00;;;;;;;;;;5075055;28;20033;-69
2022/04/02 13:34:01;;;;;;;9.03;4.67;;;;;;;;;;5075386;28;20064;-69
2022/04/02 13:36:46;;;;;;;12.90;5.40;;;;;;;;;;5077970;28;20044;-69
2022/04/02 13:39:15;;;;;;;11.38;5.60;;;;;;;;;;5094141;28;20020;-69
2022/04/02 13:41:42;;;;;;;18.27;5.53;;;;;;;;;;5090409;28;20474;-69
2022/04/02 13:44:18;;;;;;;17.80;8.03;;;;;;;;;;5090426;28;20024;-69
2022/04/02 13:46:48;;;;;;;10.57;6.20;;;;;;;;;;5084693;28;20033;-69
2022/04/02 13:49:21;;;;;;;14.80;7.20;;;;;;;;;;5071073;28;20044;-69
2022/04/02 13:51:57;;;;;;;13.03;7.50;;;;;;;;;;5083487;28;20034;-70
2022/04/02 13:54:35;;;;;;;12.97;6.80;;;;;;;;;;5076227;28;20029;-70
2022/04/02 13:57:03;;;;;;;13.43;7.10;;;;;;;;;;5074697;28;20048;-70
2022/04/02 13:59:31;;;;;;;16.87;7.00;;;;;;;;;;5075022;28;20036;-68
2022/04/02 14:01:59;;;;;;;9.87;6.17;;;;;;;;;;5082196;28;20031;-68
2022/04/02 14:04:34;;;;;;;10.63;5.63;;;;;;;;;;5089766;28;20035;-68
2022/04/02 14:07:02;;;;;;;11.80;5.28;;;;;;;;;;5079266;28;20420;-68
2022/04/02 14:09:30;;;;;;;12.93;7.23;;;;;;;;;;5068668;28;20029;-67
2022/04/02 14:12:00;;;;;;;13.03;6.40;;;;;;;;;;5071936;28;20025;-64
2022/04/02 14:14:31;;;;;;;14.70;6.13;;;;;;;;;;5080523;28;20088;-67
2022/04/02 14:17:11;;;;;;;10.37;6.00;;;;;;;;;;5094644;28;20043;-66
2022/04/02 14:19:42;;;;;;;11.03;5.13;;;;;;;;;;5094788;28;20047;-66
2022/04/02 14:22:10;;;;;;;12.40;5.80;;;;;;;;;;5094452;28;20020;-67
2022/04/02 14:25:03;;;;;;;11.80;5.93;;;;;;;;;;5090962;28;20040;-66
2022/04/02 14:27:44;;;;;;;12.57;6.20;;;;;;;;;;5084742;28;20383;-65
2022/04/02 14:30:17;;;;;;;9.80;4.53;;;;;;;;;;5089156;28;20043;-66
2022/04/02 14:32:59;;;;;;;9.32;4.85;;;;;;;;;;5089056;28;20058;-66
2022/04/02 14:35:38;;;;;;;6.60;3.70;;;;;;;;;;5094012;28;20024;-66
2022/04/02 14:38:23;;;;;;;8.17;4.40;;;;;;;;;;5094078;28;20036;-66
2022/04/02 14:40:50;;;;;;;7.28;4.30;;;;;;;;;;5094269;28;20024;-67
2022/04/02 14:43:47;;;;;;;9.43;5.23;;;;;;;;;;5094199;28;20082;-66
2022/04/02 14:46:16;;;;;;;12.87;4.50;;;;;;;;;;5092030;28;20028;-66
2022/04/02 14:48:52;;;;;;;8.43;4.90;;;;;;;;;;5088762;28;20030;-67
2022/04/02 14:51:41;;;;;;;7.87;4.97;;;;;;;;;;5088869;28;20035;-67
2022/04/02 14:54:42;;;;;;;8.67;4.70;;;;;;;;;;5069126;28;20479;-67
2022/04/02 14:57:11;;;;;;;9.87;4.97;;;;;;;;;;5092377;28;20104;-66
2022/04/02 14:59:56;;;;;;;10.27;5.37;;;;;;;;;;5093565;28;20077;-66
2022/04/02 15:02:22;;;;;;;;;;;;;;;;;;5094176;28;20024;-66
2022/04/02 15:05:08;;;;;;;9.33;4.97;;;;;;;;;;5093804;28;19904;-67